Time;durP1;ratioP1;P1;durP2;ratioP2;P2;SDS_P1;SDS_P2;PMS_P1;PMS_P2;Temp;Humidity;BMP_temperature;BMP_pressure;BME280_temperature;BME280_humidity;BME280_pressure;Samples;Min_cycle;Max_cycle;Signal;HPM_P1;HPM_P2
2022/07/25 00:01:07;;;;;;;9.05;4.88;;;22.00;99.90;;;;;;5094994;28;20070;-74
2022/07/25 00:03:33;;;;;;;6.68;4.60;;;22.00;99.90;;;;;;5095723;28;20040;-74
2022/07/25 00:05:59;;;;;;;6.72;4.72;;;22.00;99.90;;;;;;5095051;28;20051;-74
2022/07/25 00:08:25;;;;;;;8.23;4.82;;;21.90;99.90;;;;;;5095712;28;20047;-74
2022/07/25 00:10:51;;;;;;;9.82;5.65;;;21.90;99.90;;;;;;5094898;28;20040;-75
2022/07/25 00:13:16;;;;;;;9.32;4.82;;;21.90;99.90;;;;;;5094824;28;20383;-74
2022/07/25 00:15:42;;;;;;;9.65;4.20;;;21.90;99.90;;;;;;5095897;28;20051;-75
2022/07/25 00:18:08;;;;;;;8.20;4.93;;;21.80;99.90;;;;;;5094828;28;20071;-74
2022/07/25 00:20:34;;;;;;;6.05;4.57;;;21.80;99.90;;;;;;5095642;28;20090;-75
2022/07/25 00:22:59;;;;;;;7.05;5.20;;;21.80;99.90;;;;;;5094259;28;20106;-75
2022/07/25 00:25:25;;;;;;;7.50;5.40;;;21.80;99.90;;;;;;5094267;28;20076;-74
2022/07/25 00:27:51;;;;;;;7.10;5.13;;;21.80;99.90;;;;;;5094604;28;20040;-74
2022/07/25 00:30:16;;;;;;;7.35;5.45;;;21.70;99.90;;;;;;5095684;28;20036;-74
2022/07/25 00:32:43;;;;;;;7.38;5.20;;;21.60;99.90;;;;;;5094093;28;20509;-74
2022/07/25 00:35:09;;;;;;;6.60;5.03;;;21.60;99.90;;;;;;5094491;28;20479;-74
2022/07/25 00:37:34;;;;;;;7.93;5.38;;;21.50;99.90;;;;;;5095493;28;20044;-74
2022/07/25 00:40:00;;;;;;;7.30;4.95;;;21.50;99.90;;;;;;5095603;28;20040;-74
2022/07/25 00:42:25;;;;;;;6.03;4.95;;;21.50;99.90;;;;;;5093951;28;20096;-74
2022/07/25 00:44:51;;;;;;;7.60;5.15;;;21.40;99.90;;;;;;5095188;28;20040;-74
2022/07/25 00:47:17;;;;;;;8.27;4.65;;;21.40;99.90;;;;;;5095208;28;20534;-74
2022/07/25 00:49:43;;;;;;;7.97;5.60;;;21.40;99.90;;;;;;5094216;28;20086;-74
2022/07/25 00:52:08;;;;;;;9.82;5.57;;;21.30;99.90;;;;;;5095048;28;20047;-74
2022/07/25 00:54:34;;;;;;;7.05;5.40;;;21.30;99.90;;;;;;5095212;28;20036;-74
2022/07/25 00:57:00;;;;;;;7.47;5.30;;;21.30;99.90;;;;;;5094939;28;20071;-75
2022/07/25 00:59:25;;;;;;;8.93;5.65;;;21.30;99.90;;;;;;5095051;28;20036;-75
2022/07/25 01:01:51;;;;;;;6.68;4.78;;;21.20;99.90;;;;;;5093824;28;20051;-75
2022/07/25 01:04:17;;;;;;;6.85;5.05;;;21.10;99.90;;;;;;5093676;28;20044;-74
2022/07/25 01:06:43;;;;;;;7.03;5.60;;;21.10;99.90;;;;;;5093445;28;20048;-74
2022/07/25 01:09:09;;;;;;;6.43;4.95;;;21.10;99.90;;;;;;5094687;28;20148;-74
2022/07/25 01:11:35;;;;;;;7.75;5.10;;;21.10;99.90;;;;;;5094793;28;20036;-74
2022/07/25 01:14:00;;;;;;;9.15;5.25;;;21.00;99.90;;;;;;5093413;28;20054;-74
2022/07/25 01:16:26;;;;;;;6.70;5.30;;;21.00;99.90;;;;;;5093086;28;20387;-74
2022/07/25 01:18:51;;;;;;;6.93;5.10;;;20.90;99.90;;;;;;5093435;28;20044;-74
2022/07/25 01:21:17;;;;;;;6.97;5.10;;;20.90;99.90;;;;;;5093151;28;20048;-74
2022/07/25 01:23:43;;;;;;;8.27;5.00;;;20.90;99.90;;;;;;5094241;28;20055;-74
2022/07/25 01:26:08;;;;;;;6.78;5.15;;;20.80;99.90;;;;;;5094612;28;20058;-74
2022/07/25 01:28:34;;;;;;;7.95;5.80;;;20.80;99.90;;;;;;5094567;28;20066;-74
2022/07/25 01:31:00;;;;;;;9.07;5.15;;;20.70;99.90;;;;;;5094421;28;20028;-74
2022/07/25 01:33:25;;;;;;;7.22;5.20;;;20.70;99.90;;;;;;5093395;28;20475;-74
2022/07/25 01:35:51;;;;;;;8.18;5.70;;;20.70;99.90;;;;;;5094253;28;20052;-74
2022/07/25 01:38:17;;;;;;;7.28;4.82;;;20.60;99.90;;;;;;5093239;28;20126;-74
2022/07/25 01:40:43;;;;;;;7.47;5.45;;;20.50;99.90;;;;;;5094153;28;20036;-74
2022/07/25 01:43:09;;;;;;;6.72;5.43;;;20.50;99.90;;;;;;5094309;28;20054;-74
2022/07/25 01:45:36;;;;;;;6.80;5.22;;;20.50;99.90;;;;;;5094294;28;20113;-74
2022/07/25 01:48:02;;;;;;;7.63;5.55;;;20.50;99.90;;;;;;5094159;28;20040;-74
2022/07/25 01:50:27;;;;;;;8.32;5.28;;;20.40;99.90;;;;;;5093937;28;20043;-74
2022/07/25 01:52:53;;;;;;;7.32;5.72;;;20.30;99.90;;;;;;5092770;28;20539;-74
2022/07/25 01:55:19;;;;;;;7.60;5.60;;;20.30;99.90;;;;;;5094082;28;20048;-74
2022/07/25 01:57:45;;;;;;;7.63;5.57;;;20.30;99.90;;;;;;5094214;28;20067;-74
2022/07/25 02:00:13;;;;;;;6.95;5.25;;;20.20;99.90;;;;;;5094064;28;20548;-74
2022/07/25 02:02:43;;;;;;;7.22;5.07;;;20.20;99.90;;;;;;5093872;28;20094;-74
2022/07/25 02:05:10;;;;;;;6.95;5.47;;;20.10;99.90;;;;;;5092838;28;20048;-74
2022/07/25 02:07:36;;;;;;;8.20;5.40;;;20.10;99.90;;;;;;5093952;28;20071;-74
2022/07/25 02:10:04;;;;;;;7.57;5.07;;;20.10;99.90;;;;;;5092882;28;20071;-74
2022/07/25 02:12:30;;;;;;;8.48;5.68;;;20.10;99.90;;;;;;5092886;28;20054;-74
2022/07/25 02:14:56;;;;;;;9.05;5.50;;;20.00;99.90;;;;;;5093806;28;20044;-74
2022/07/25 02:17:22;;;;;;;7.90;6.15;;;20.00;99.90;;;;;;5092601;28;20046;-74
2022/07/25 02:19:47;;;;;;;9.40;5.75;;;20.00;99.90;;;;;;5093829;28;20090;-74
2022/07/25 02:22:13;;;;;;;8.55;6.18;;;20.00;99.90;;;;;;5093496;28;20056;-74
2022/07/25 02:24:39;;;;;;;6.32;4.97;;;20.00;99.90;;;;;;5093807;28;20044;-74
2022/07/25 02:27:05;;;;;;;9.27;5.57;;;20.00;99.90;;;;;;5096675;28;20130;-74
2022/07/25 02:29:31;;;;;;;10.52;5.90;;;20.00;99.90;;;;;;5098025;28;20047;-74
2022/07/25 02:31:57;;;;;;;8.05;5.70;;;20.00;99.90;;;;;;5097935;28;20055;-74
2022/07/25 02:34:22;;;;;;;6.90;5.70;;;20.00;99.90;;;;;;5097856;28;20036;-74
2022/07/25 02:36:48;;;;;;;7.30;5.50;;;20.00;99.90;;;;;;5096399;28;20060;-74
2022/07/25 02:39:14;;;;;;;8.48;5.60;;;20.00;99.90;;;;;;5097670;28;20131;-74
2022/07/25 02:41:39;;;;;;;8.48;6.20;;;20.00;99.90;;;;;;5096350;28;20059;-74
2022/07/25 02:44:05;;;;;;;9.32;5.93;;;20.00;99.90;;;;;;5096665;28;20047;-74
2022/07/25 02:46:31;;;;;;;8.93;5.55;;;20.00;99.90;;;;;;5097578;28;20063;-74
2022/07/25 02:48:57;;;;;;;8.48;5.95;;;20.00;99.90;;;;;;5097632;28;20047;-74
2022/07/25 02:51:23;;;;;;;8.20;5.90;;;20.00;99.90;;;;;;5096384;28;20052;-74
2022/07/25 02:53:49;;;;;;;7.85;5.95;;;20.00;99.90;;;;;;5097438;28;20098;-74
2022/07/25 02:56:15;;;;;;;10.63;6.25;;;20.10;99.90;;;;;;5097513;28;20036;-74
2022/07/25 02:58:40;;;;;;;9.60;6.47;;;20.00;99.90;;;;;;5096154;28;20494;-74
2022/07/25 03:01:06;;;;;;;7.97;6.10;;;20.10;99.90;;;;;;5097006;28;20102;-74
2022/07/25 03:03:32;;;;;;;9.60;6.53;;;20.10;99.90;;;;;;5096185;28;20080;-74
2022/07/25 03:05:57;;;;;;;9.48;6.88;;;20.10;99.90;;;;;;5096142;28;20397;-74
2022/07/25 03:08:23;;;;;;;8.50;6.25;;;20.10;99.90;;;;;;5097223;28;20483;-74
2022/07/25 03:10:49;;;;;;;9.30;6.78;;;20.00;99.90;;;;;;5096178;28;20044;-74
2022/07/25 03:13:14;;;;;;;9.82;6.53;;;20.00;99.90;;;;;;5097143;28;20395;-74
2022/07/25 03:15:40;;;;;;;8.13;6.45;;;20.00;99.90;;;;;;5096791;28;20127;-74
2022/07/25 03:18:06;;;;;;;8.65;6.80;;;20.00;99.90;;;;;;5095571;28;20040;-74
2022/07/25 03:20:32;;;;;;;10.48;6.93;;;20.00;99.90;;;;;;5096949;28;20122;-74
2022/07/25 03:22:57;;;;;;;8.95;6.78;;;20.00;99.90;;;;;;5096643;28;20056;-74
2022/07/25 03:25:23;;;;;;;10.88;7.18;;;20.10;99.90;;;;;;5095675;28;20043;-74
2022/07/25 03:27:49;;;;;;;11.82;7.35;;;20.10;99.90;;;;;;5096901;28;20502;-74
2022/07/25 03:30:15;;;;;;;10.70;6.95;;;20.10;99.90;;;;;;5096839;28;20058;-74
2022/07/25 03:32:40;;;;;;;12.63;7.22;;;20.20;99.90;;;;;;5095259;28;20048;-74
2022/07/25 03:35:06;;;;;;;10.82;7.30;;;20.20;99.90;;;;;;5095054;28;20086;-74
2022/07/25 03:37:32;;;;;;;12.25;7.03;;;20.20;99.90;;;;;;5094629;28;20048;-74
2022/07/25 03:39:58;;;;;;;9.30;7.28;;;20.20;99.90;;;;;;5094289;28;20051;-74
2022/07/25 03:42:23;;;;;;;11.00;6.72;;;20.20;99.90;;;;;;5095129;28;20052;-73
2022/07/25 03:44:49;;;;;;;11.95;6.90;;;20.20;99.90;;;;;;5093096;28;20512;-74
2022/07/25 03:47:15;;;;;;;12.27;7.13;;;20.20;99.90;;;;;;5095471;28;20040;-74
2022/07/25 03:49:40;;;;;;;9.73;7.03;;;20.20;99.90;;;;;;5095132;28;20132;-74
2022/07/25 03:52:06;;;;;;;10.90;7.47;;;20.20;99.90;;;;;;5096287;28;20090;-74
2022/07/25 03:54:31;;;;;;;9.38;7.10;;;20.20;99.90;;;;;;5094813;28;20050;-74
2022/07/25 03:56:57;;;;;;;10.10;7.43;;;20.20;99.90;;;;;;5095996;28;20058;-74
2022/07/25 03:59:23;;;;;;;10.77;7.45;;;20.20;99.90;;;;;;5094696;28;20051;-74
2022/07/25 04:01:50;;;;;;;12.45;7.63;;;20.20;99.90;;;;;;5095819;28;20048;-74
2022/07/25 04:04:16;;;;;;;9.57;7.10;;;20.20;99.90;;;;;;5094968;28;20131;-74
2022/07/25 04:06:42;;;;;;;9.20;7.13;;;20.20;99.90;;;;;;5096138;28;20044;-74
2022/07/25 04:09:09;;;;;;;9.45;7.53;;;20.20;99.90;;;;;;5094520;28;20123;-74
2022/07/25 04:11:37;;;;;;;9.18;7.60;;;20.20;99.90;;;;;;5094460;28;20097;-74
2022/07/25 04:14:03;;;;;;;9.38;6.85;;;20.20;99.90;;;;;;5095723;28;20042;-74
2022/07/25 04:16:29;;;;;;;11.50;8.48;;;20.20;99.90;;;;;;5094748;28;20372;-74
2022/07/25 04:18:56;;;;;;;10.60;7.15;;;20.20;99.90;;;;;;5095947;28;20041;-74
2022/07/25 04:21:22;;;;;;;10.15;7.97;;;20.30;99.90;;;;;;5095741;28;20063;-74
2022/07/25 04:23:48;;;;;;;11.68;7.85;;;20.30;99.90;;;;;;5094166;28;20411;-74
2022/07/25 04:26:13;;;;;;;12.75;7.82;;;20.30;99.90;;;;;;5095543;28;20048;-74
2022/07/25 04:28:39;;;;;;;10.50;7.43;;;20.30;99.90;;;;;;5094090;28;20051;-74
2022/07/25 04:31:05;;;;;;;13.63;8.25;;;20.30;99.90;;;;;;5094160;28;20073;-74
2022/07/25 04:33:30;;;;;;;11.32;7.95;;;20.30;99.90;;;;;;5093961;28;20052;-74
2022/07/25 04:35:56;;;;;;;13.45;9.23;;;20.30;99.90;;;;;;5095214;28;20067;-73
2022/07/25 04:38:22;;;;;;;9.55;7.30;;;20.30;99.90;;;;;;5094308;28;20053;-74
2022/07/25 04:40:47;;;;;;;12.18;8.00;;;20.30;99.90;;;;;;5093804;28;20407;-74
2022/07/25 04:43:13;;;;;;;9.77;7.90;;;20.30;99.90;;;;;;5095033;28;20059;-74
2022/07/25 04:45:39;;;;;;;9.82;8.20;;;20.30;99.90;;;;;;5095287;28;20038;-74
2022/07/25 04:48:05;;;;;;;10.18;7.95;;;20.30;99.90;;;;;;5093779;28;20146;-74
2022/07/25 04:50:30;;;;;;;12.55;8.57;;;20.30;99.90;;;;;;5094053;28;20040;-74
2022/07/25 04:52:56;;;;;;;11.60;8.65;;;20.30;99.90;;;;;;5094988;28;20042;-74
2022/07/25 04:55:22;;;;;;;11.30;8.40;;;20.30;99.90;;;;;;5093642;28;20548;-74
2022/07/25 04:57:47;;;;;;;14.73;9.40;;;20.30;99.90;;;;;;5093568;28;20044;-74
2022/07/25 05:00:13;;;;;;;12.10;8.40;;;20.30;99.90;;;;;;5093808;28;20040;-74
2022/07/25 05:02:40;;;;;;;9.70;7.97;;;20.30;99.90;;;;;;5093493;28;20427;-74
2022/07/25 05:05:07;;;;;;;14.90;8.68;;;20.40;99.90;;;;;;5094583;28;20452;-74
2022/07/25 05:07:33;;;;;;;12.93;8.88;;;20.40;99.90;;;;;;5094886;28;20052;-74
2022/07/25 05:09:59;;;;;;;10.95;8.82;;;20.40;99.90;;;;;;5094788;28;20047;-74
2022/07/25 05:12:25;;;;;;;14.02;9.05;;;20.40;99.90;;;;;;5094866;28;20048;-74
2022/07/25 05:14:50;;;;;;;11.20;8.75;;;20.50;99.90;;;;;;5094432;28;20098;-74
2022/07/25 05:17:16;;;;;;;12.13;9.68;;;20.40;99.90;;;;;;5094591;28;20048;-74
2022/07/25 05:19:41;;;;;;;12.75;9.18;;;20.50;99.90;;;;;;5093181;28;20065;-74
2022/07/25 05:22:07;;;;;;;13.23;9.93;;;20.50;99.90;;;;;;5092987;28;20063;-74
2022/07/25 05:24:34;;;;;;;11.43;9.52;;;20.60;99.90;;;;;;5094400;28;20044;-74
2022/07/25 05:27:00;;;;;;;11.07;8.80;;;20.60;99.90;;;;;;5094270;28;20062;-74
2022/07/25 05:29:27;;;;;;;13.50;9.20;;;20.60;99.90;;;;;;5094538;28;20047;-74
2022/07/25 05:31:52;;;;;;;11.68;8.93;;;20.60;99.90;;;;;;5094420;28;20047;-73
2022/07/25 05:34:18;;;;;;;13.23;10.63;;;20.60;99.90;;;;;;5094469;28;20036;-74
2022/07/25 05:36:44;;;;;;;14.60;10.88;;;20.60;99.90;;;;;;5094275;28;20062;-74
2022/07/25 05:39:10;;;;;;;13.70;10.13;;;20.60;99.90;;;;;;5094121;28;20086;-74
2022/07/25 05:41:36;;;;;;;13.43;10.05;;;20.60;99.90;;;;;;5093931;28;20044;-74
2022/07/25 05:44:02;;;;;;;13.77;10.32;;;20.60;99.90;;;;;;5093990;28;20437;-74
2022/07/25 05:46:28;;;;;;;13.02;9.98;;;20.60;99.90;;;;;;5092734;28;20085;-74
2022/07/25 05:48:53;;;;;;;16.45;10.27;;;20.60;99.90;;;;;;5093879;28;20046;-74
2022/07/25 05:51:19;;;;;;;14.20;9.68;;;20.60;99.90;;;;;;5094143;28;20065;-74
2022/07/25 05:53:44;;;;;;;15.10;10.95;;;20.60;99.90;;;;;;5092775;28;20040;-74
2022/07/25 05:56:10;;;;;;;14.85;10.98;;;20.60;99.90;;;;;;5092613;28;20047;-74
2022/07/25 05:58:39;;;;;;;12.52;10.73;;;20.60;99.90;;;;;;5094146;28;20040;-74
2022/07/25 06:01:11;;;;;;;13.18;9.93;;;20.70;99.90;;;;;;5092069;28;20458;-74
2022/07/25 06:03:37;;;;;;;13.38;10.50;;;20.70;99.90;;;;;;5094040;28;20048;-74
2022/07/25 06:06:03;;;;;;;13.75;10.65;;;20.70;99.90;;;;;;5093678;28;20043;-74
2022/07/25 06:08:29;;;;;;;15.32;11.23;;;20.80;99.90;;;;;;5093733;28;20097;-74
2022/07/25 06:10:59;;;;;;;13.80;10.50;;;20.80;99.90;;;;;;5093914;28;20119;-74
2022/07/25 06:13:26;;;;;;;13.50;10.85;;;20.80;99.90;;;;;;5093882;28;20089;-74
2022/07/25 06:15:52;;;;;;;15.68;10.93;;;21.00;99.90;;;;;;5092432;28;20075;-74
2022/07/25 06:18:18;;;;;;;16.10;11.57;;;21.10;99.90;;;;;;5093413;28;20040;-75
2022/07/25 06:20:44;;;;;;;14.15;10.57;;;21.30;99.90;;;;;;5086655;28;20059;-73
2022/07/25 06:23:10;;;;;;;15.98;10.95;;;21.40;99.90;;;;;;5075174;28;20057;-73
2022/07/25 06:25:36;;;;;;;13.73;10.85;;;21.40;99.90;;;;;;5071895;28;20523;-73
2022/07/25 06:28:02;;;;;;;14.32;10.02;;;21.50;99.90;;;;;;5073242;28;20084;-72
2022/07/25 06:30:28;;;;;;;14.15;10.05;;;21.50;99.90;;;;;;5073237;28;20037;-73
2022/07/25 06:32:54;;;;;;;12.48;10.52;;;21.50;99.90;;;;;;5071897;28;20070;-73
2022/07/25 06:35:20;;;;;;;12.57;11.23;;;21.50;99.90;;;;;;5073066;28;20044;-73
2022/07/25 06:37:45;;;;;;;13.68;10.50;;;21.50;99.90;;;;;;5072977;28;20037;-73
2022/07/25 06:40:11;;;;;;;12.77;10.30;;;21.50;99.90;;;;;;5071993;28;20059;-73
2022/07/25 06:42:39;;;;;;;13.48;10.93;;;21.50;99.90;;;;;;5071686;28;20057;-73
2022/07/25 06:45:07;;;;;;;12.63;10.40;;;21.50;99.90;;;;;;5071712;28;20055;-73
2022/07/25 06:47:36;;;;;;;14.32;10.38;;;21.50;99.90;;;;;;5073161;28;20049;-73
2022/07/25 06:50:06;;;;;;;14.60;11.18;;;21.50;99.90;;;;;;5071822;28;20116;-73
2022/07/25 06:52:32;;;;;;;13.93;10.82;;;21.60;99.90;;;;;;5072765;28;20500;-73
2022/07/25 06:54:58;;;;;;;14.00;11.00;;;21.70;99.90;;;;;;5073032;28;20045;-73
2022/07/25 06:57:24;;;;;;;14.55;10.98;;;21.80;99.90;;;;;;5073044;28;20045;-73
2022/07/25 06:59:50;;;;;;;13.82;9.70;;;21.90;99.90;;;;;;5072786;28;20552;-73
2022/07/25 07:02:15;;;;;;;14.70;10.57;;;21.90;99.90;;;;;;5071544;28;20172;-73
2022/07/25 07:04:41;;;;;;;14.10;11.07;;;22.00;99.90;;;;;;5072631;28;20049;-72
2022/07/25 07:07:06;;;;;;;14.05;10.25;;;22.10;99.90;;;;;;5071474;28;20056;-72
2022/07/25 07:09:32;;;;;;;16.45;10.55;;;22.20;99.90;;;;;;5071432;28;20097;-74
2022/07/25 07:11:58;;;;;;;11.73;9.88;;;22.30;99.90;;;;;;5071648;28;20051;-73
2022/07/25 07:14:23;;;;;;;12.32;9.75;;;22.50;99.90;;;;;;5074551;28;20407;-73
2022/07/25 07:16:49;;;;;;;13.90;9.57;;;22.50;99.90;;;;;;5076351;28;20055;-73
2022/07/25 07:19:14;;;;;;;14.07;9.85;;;22.60;99.90;;;;;;5076472;28;20041;-73
2022/07/25 07:21:41;;;;;;;12.90;8.88;;;22.70;99.90;;;;;;5076141;28;20098;-74
2022/07/25 07:24:07;;;;;;;13.55;9.30;;;22.80;99.90;;;;;;5076253;28;20499;-73
2022/07/25 07:26:33;;;;;;;13.95;8.52;;;22.90;99.90;;;;;;5075175;28;20052;-73
2022/07/25 07:28:59;;;;;;;10.57;7.68;;;22.90;99.90;;;;;;5076209;28;20052;-73
2022/07/25 07:31:25;;;;;;;11.30;7.65;;;22.90;99.90;;;;;;5076060;28;20390;-73
2022/07/25 07:33:50;;;;;;;11.55;7.30;;;22.90;99.90;;;;;;5076236;28;20539;-73
2022/07/25 07:36:16;;;;;;;9.32;6.93;;;22.90;99.90;;;;;;5075955;28;20056;-73
2022/07/25 07:38:43;;;;;;;10.57;6.07;;;22.90;99.90;;;;;;5075915;28;20083;-74
2022/07/25 07:41:09;;;;;;;7.32;5.50;;;22.80;99.90;;;;;;5074938;28;20045;-73
2022/07/25 07:43:35;;;;;;;7.78;5.82;;;22.80;99.90;;;;;;5074521;28;20052;-74
2022/07/25 07:46:01;;;;;;;6.88;4.57;;;22.90;99.90;;;;;;5075752;28;20041;-74
2022/07/25 07:48:31;;;;;;;8.15;4.90;;;22.90;99.90;;;;;;5075697;28;20112;-74
2022/07/25 07:50:57;;;;;;;6.40;4.43;;;22.90;99.90;;;;;;5075765;28;20044;-74
2022/07/25 07:55:42;;;;;;;10.93;6.18;;;22.90;99.90;;;;;;5074760;28;20044;-74
2022/07/25 07:56:08;;;;;;;7.15;4.65;;;22.80;99.90;;;;;;5075683;28;20134;-73
2022/07/25 07:58:34;;;;;;;6.68;5.10;;;22.60;99.90;;;;;;5075612;28;20468;-73
2022/07/25 08:00:59;;;;;;;6.95;5.15;;;22.50;99.90;;;;;;5081434;28;20082;-73
2022/07/25 08:03:26;;;;;;;8.18;4.55;;;22.30;99.90;;;;;;5081025;28;20392;-74
2022/07/25 08:05:52;;;;;;;7.43;4.03;;;22.30;99.90;;;;;;5075623;28;20040;-73
2022/07/25 08:08:18;;;;;;;6.18;4.43;;;22.30;99.90;;;;;;5075562;28;20114;-73
2022/07/25 08:10:47;;;;;;;7.18;4.38;;;22.30;99.90;;;;;;5075389;28;20094;-74
2022/07/25 08:13:24;;;;;;;6.60;4.00;;;22.20;99.90;;;;;;5075604;28;20041;-73
2022/07/25 08:15:54;;;;;;;8.00;3.90;;;22.20;99.90;;;;;;5075329;28;20055;-75
2022/07/25 08:18:20;;;;;;;7.32;4.10;;;22.10;99.90;;;;;;5075861;28;20050;-75
2022/07/25 08:20:47;;;;;;;5.35;3.83;;;22.10;99.90;;;;;;5074095;28;20127;-76
2022/07/25 08:23:13;;;;;;;6.47;3.60;;;22.10;99.90;;;;;;5075019;28;20140;-75
2022/07/25 08:25:39;;;;;;;5.07;3.40;;;22.10;99.90;;;;;;5074863;28;20494;-76
2022/07/25 08:28:05;;;;;;;8.93;3.53;;;22.10;99.90;;;;;;5073738;28;20044;-75
2022/07/25 08:30:32;;;;;;;5.93;3.20;;;22.00;99.90;;;;;;5076415;28;20040;-75
2022/07/25 08:33:00;;;;;;;6.85;3.05;;;21.90;99.90;;;;;;5084102;28;20051;-75
2022/07/25 08:35:27;;;;;;;6.20;3.33;;;21.90;99.90;;;;;;5074996;28;20032;-75
2022/07/25 08:37:54;;;;;;;7.68;3.70;;;21.90;99.90;;;;;;5073879;28;20059;-76
2022/07/25 08:40:21;;;;;;;4.18;2.80;;;21.90;99.90;;;;;;5076256;28;20390;-76
2022/07/25 08:42:48;;;;;;;5.45;2.67;;;21.90;99.90;;;;;;5083741;28;20048;-76
2022/07/25 08:45:16;;;;;;;4.15;2.13;;;22.00;99.90;;;;;;5073464;28;20044;-76
2022/07/25 08:47:42;;;;;;;7.25;2.67;;;21.90;99.90;;;;;;5074645;28;20048;-76
2022/07/25 08:50:11;;;;;;;3.03;2.13;;;22.10;99.90;;;;;;5073524;28;20076;-75
2022/07/25 08:52:38;;;;;;;5.43;2.40;;;22.30;99.90;;;;;;5074895;28;20045;-75
2022/07/25 08:55:05;;;;;;;9.13;3.33;;;22.30;99.90;;;;;;5074371;28;20484;-75
2022/07/25 08:57:30;;;;;;;5.28;2.70;;;22.40;99.90;;;;;;5073229;28;20076;-76
2022/07/25 08:59:59;;;;;;;7.15;2.53;;;22.50;99.90;;;;;;5073814;28;20080;-75
2022/07/25 09:02:28;;;;;;;4.55;2.65;;;22.50;99.90;;;;;;5083721;28;20044;-76
2022/07/25 09:04:58;;;;;;;5.78;2.50;;;22.60;99.90;;;;;;5093215;28;20050;-76
2022/07/25 09:07:35;;;;;;;6.32;3.10;;;22.60;99.90;;;;;;5094380;28;20036;-76
2022/07/25 09:10:21;;;;;;;8.73;2.58;;;22.70;99.90;;;;;;5090939;28;20052;-76
2022/07/25 09:12:56;;;;;;;4.70;2.97;;;22.80;99.90;;;;;;5090345;28;20075;-76
2022/07/25 09:15:26;;;;;;;4.95;2.30;;;22.80;99.90;;;;;;5094560;28;20052;-76
2022/07/25 09:17:53;;;;;;;7.85;2.78;;;23.00;99.90;;;;;;5094376;28;20487;-77
2022/07/25 09:20:20;;;;;;;4.85;2.72;;;23.20;99.90;;;;;;5093253;28;20079;-76
2022/07/25 09:22:46;;;;;;;9.82;3.10;;;23.20;99.90;;;;;;5093983;28;20561;-76
2022/07/25 09:25:28;;;;;;;4.13;2.20;;;23.20;99.90;;;;;;5094345;28;20050;-76
2022/07/25 09:27:55;;;;;;;3.55;2.25;;;23.10;99.90;;;;;;5092959;28;20388;-76
2022/07/25 09:30:21;;;;;;;5.10;2.55;;;22.90;99.90;;;;;;5094115;28;20043;-75
2022/07/25 09:32:46;;;;;;;9.15;2.83;;;22.70;99.90;;;;;;5093296;28;20510;-75
2022/07/25 09:35:12;;;;;;;4.55;2.50;;;22.50;99.90;;;;;;5093920;28;20483;-75
2022/07/25 09:37:38;;;;;;;5.30;2.75;;;22.30;99.90;;;;;;5094072;28;20113;-75
2022/07/25 09:40:13;;;;;;;5.07;2.20;;;22.00;99.90;;;;;;5092687;28;20055;-75
2022/07/25 09:42:41;;;;;;;5.30;2.80;;;22.00;99.90;;;;;;5093751;28;20052;-76
2022/07/25 09:45:14;;;;;;;9.90;3.45;;;21.90;99.90;;;;;;5094078;28;20115;-75
2022/07/25 09:47:55;;;;;;;4.45;2.70;;;21.90;99.90;;;;;;5093872;28;20043;-76
2022/07/25 09:50:22;;;;;;;5.60;2.90;;;22.10;99.90;;;;;;5094138;28;20044;-76
2022/07/25 09:52:53;;;;;;;4.80;2.60;;;22.20;99.90;;;;;;5094019;28;20043;-76
2022/07/25 09:55:20;;;;;;;8.55;3.10;;;22.10;99.90;;;;;;5093959;28;20032;-76
2022/07/25 09:57:48;;;;;;;7.45;3.40;;;22.30;99.90;;;;;;5093892;28;20048;-76
2022/07/25 10:00:23;;;;;;;6.28;3.08;;;22.70;99.90;;;;;;5094055;28;20044;-76
2022/07/25 10:03:00;;;;;;;5.30;2.83;;;22.90;99.90;;;;;;5094224;28;20047;-76
2022/07/25 10:05:43;;;;;;;6.22;3.22;;;23.10;99.90;;;;;;5092539;28;20067;-76
2022/07/25 10:08:10;;;;;;;7.05;3.22;;;22.90;99.90;;;;;;5093694;28;20376;-76
2022/07/25 10:10:40;;;;;;;9.35;3.00;;;22.90;99.90;;;;;;5092634;28;20123;-75
2022/07/25 10:13:15;;;;;;;15.15;3.60;;;23.00;99.90;;;;;;5093681;28;20081;-76
2022/07/25 10:15:52;;;;;;;7.22;2.83;;;23.10;99.90;;;;;;5093703;28;20052;-76
2022/07/25 10:18:20;;;;;;;6.70;2.70;;;23.30;99.90;;;;;;5093863;28;20035;-75
2022/07/25 10:20:48;;;;;;;7.18;2.70;;;23.20;99.90;;;;;;5093945;28;20044;-75
2022/07/25 10:23:21;;;;;;;11.20;3.65;;;23.30;99.90;;;;;;5093310;28;20522;-76
2022/07/25 10:26:10;;;;;;;8.63;2.60;;;23.30;99.90;;;;;;5092528;28;20048;-76
2022/07/25 10:28:37;;;;;;;7.82;2.70;;;23.30;99.90;;;;;;5092392;28;20052;-76
2022/07/25 10:31:12;;;;;;;7.95;3.55;;;23.10;99.90;;;;;;5093627;28;20100;-76
2022/07/25 10:33:41;;;;;;;7.13;2.95;;;23.10;99.90;;;;;;5093458;28;20409;-76
2022/07/25 10:36:09;;;;;;;12.85;3.28;;;23.10;99.90;;;;;;5093668;28;20092;-76
2022/07/25 10:38:39;;;;;;;10.30;3.35;;;23.30;99.90;;;;;;5093500;28;20070;-76
2022/07/25 10:41:07;;;;;;;7.93;3.15;;;23.30;99.90;;;;;;5092030;28;20178;-76
2022/07/25 10:43:38;;;;;;;7.75;2.95;;;23.30;99.90;;;;;;5092304;28;20052;-76
2022/07/25 10:46:12;;;;;;;9.07;3.28;;;23.00;99.90;;;;;;5093653;28;20040;-76
2022/07/25 10:48:38;;;;;;;9.25;3.33;;;22.90;99.90;;;;;;5094490;28;20055;-76
2022/07/25 10:51:07;;;;;;;8.10;3.00;;;22.90;99.90;;;;;;5096162;28;20042;-76
2022/07/25 10:53:45;;;;;;;9.38;3.35;;;22.80;99.90;;;;;;5096388;28;20115;-76
2022/07/25 10:56:22;;;;;;;6.38;2.95;;;22.90;99.90;;;;;;5096335;28;20066;-76
2022/07/25 10:58:51;;;;;;;7.50;2.72;;;23.00;99.90;;;;;;5095995;28;20048;-76
2022/07/25 11:01:32;;;;;;;7.57;3.13;;;23.10;99.90;;;;;;5097517;28;20040;-76
2022/07/25 11:04:04;;;;;;;7.03;3.10;;;23.10;99.90;;;;;;5097200;28;20491;-76
2022/07/25 11:06:38;;;;;;;10.10;3.00;;;23.20;99.90;;;;;;5097072;28;20032;-76
2022/07/25 11:09:17;;;;;;;7.65;2.90;;;23.10;99.90;;;;;;5097290;28;20048;-76
2022/07/25 11:11:48;;;;;;;11.30;3.47;;;22.70;99.90;;;;;;5096032;28;20055;-76
2022/07/25 11:14:21;;;;;;;8.45;3.22;;;22.60;99.90;;;;;;5097016;28;20398;-76
2022/07/25 11:16:50;;;;;;;8.80;2.90;;;22.50;99.90;;;;;;5097018;28;20074;-76
2022/07/25 11:19:22;;;;;;;9.23;2.80;;;22.50;99.90;;;;;;5097249;28;20032;-76
2022/07/25 11:21:57;;;;;;;5.35;2.80;;;22.50;99.90;;;;;;5096798;28;20032;-76
2022/07/25 11:24:39;;;;;;;7.45;3.03;;;22.50;99.90;;;;;;5096898;28;20101;-76
2022/07/25 11:27:06;;;;;;;7.90;2.70;;;22.50;99.90;;;;;;5096978;28;20036;-75
2022/07/25 11:29:33;;;;;;;8.15;3.30;;;22.50;99.90;;;;;;5095589;28;20403;-76
2022/07/25 11:32:05;;;;;;;9.85;3.22;;;22.50;99.90;;;;;;5096824;28;20036;-76
2022/07/25 11:34:33;;;;;;;9.43;2.90;;;22.40;99.90;;;;;;5096852;28;20055;-76
2022/07/25 11:37:01;;;;;;;9.43;2.92;;;22.40;99.90;;;;;;5096657;28;20032;-76
2022/07/25 11:39:30;;;;;;;7.97;2.72;;;22.40;99.90;;;;;;5096712;28;20040;-76
2022/07/25 11:42:04;;;;;;;5.50;2.53;;;22.60;99.90;;;;;;5096536;28;20048;-76
2022/07/25 11:44:35;;;;;;;7.80;3.83;;;22.70;99.90;;;;;;5095096;28;20075;-76
2022/07/25 11:47:03;;;;;;;8.75;2.70;;;22.80;99.90;;;;;;5096427;28;20510;-76
2022/07/25 11:49:29;;;;;;;9.98;3.25;;;22.80;99.90;;;;;;5096280;28;20052;-76
2022/07/25 11:51:55;;;;;;;8.93;3.13;;;22.90;99.90;;;;;;5095021;28;20062;-76
2022/07/25 11:54:21;;;;;;;11.55;2.97;;;22.90;99.90;;;;;;5095874;28;20465;-75
2022/07/25 11:56:47;;;;;;;8.90;2.58;;;23.00;99.90;;;;;;5096130;28;20101;-75
2022/07/25 11:59:12;;;;;;;10.30;3.20;;;23.40;99.90;;;;;;5095442;28;20048;-75
2022/07/25 12:01:40;;;;;;;8.48;2.42;;;23.50;99.90;;;;;;5094662;28;20040;-75
2022/07/25 12:04:16;;;;;;;7.07;2.35;;;23.70;99.90;;;;;;5094748;28;20048;-76
2022/07/25 12:06:47;;;;;;;4.53;1.85;;;24.10;99.90;;;;;;5094621;28;20044;-75
2022/07/25 12:09:15;;;;;;;5.63;2.30;;;23.80;99.90;;;;;;5091988;28;20119;-75
2022/07/25 12:11:42;;;;;;;10.93;2.63;;;23.50;99.90;;;;;;5084679;28;20055;-75
2022/07/25 12:14:08;;;;;;;8.00;2.70;;;23.30;99.90;;;;;;5075657;28;20048;-75
2022/07/25 12:16:34;;;;;;;10.77;2.63;;;23.00;99.90;;;;;;5079330;28;20075;-75
2022/07/25 12:19:01;;;;;;;10.38;2.67;;;23.10;99.90;;;;;;5095297;28;20040;-76
2022/07/25 12:21:26;;;;;;;7.57;2.50;;;23.20;99.90;;;;;;5094986;28;20368;-76
2022/07/25 12:23:52;;;;;;;5.70;2.40;;;23.30;99.90;;;;;;5095013;28;20055;-75
2022/07/25 12:26:18;;;;;;;8.07;3.08;;;23.30;99.90;;;;;;5095406;28;20083;-75
2022/07/25 12:28:44;;;;;;;7.13;2.90;;;23.20;99.90;;;;;;5095788;28;20047;-76
2022/07/25 12:31:10;;;;;;;6.03;2.78;;;23.20;99.90;;;;;;5095735;28;20073;-76
2022/07/25 12:33:35;;;;;;;6.53;2.78;;;23.20;99.90;;;;;;5094493;28;20039;-75
2022/07/25 12:36:02;;;;;;;7.93;2.47;;;23.30;99.90;;;;;;5095235;28;20071;-76
2022/07/25 12:38:28;;;;;;;5.97;2.70;;;23.30;99.90;;;;;;5095520;28;20040;-76
2022/07/25 12:40:54;;;;;;;7.22;2.78;;;23.50;99.90;;;;;;5087053;28;20050;-75
2022/07/25 12:43:20;;;;;;;7.85;2.50;;;23.90;99.90;;;;;;5090572;28;20044;-75